SKMZ Airport Information

Runway Information
Runway 10 Length 4835 ft width 65 ft
Elevation ft Threshold ft Heading 95
Runway 28 Length 4835 ft Width 65 ft
Elevation ft Threshold 265 ft Heading 275
Runway 09 Length 0 ft width 0 ft
Elevation 6791 ft Threshold ft Heading 0
Runway 27 Length 0 ft Width 0 ft
Elevation 6974 ft Threshold ft Heading 0
Airport Frequencies
Type APP Name MEDELLIN A Frequency 121.1 MHZ
Type RDO Name MANIZALES Frequency 348.8 MHZ
Type TWR Name TWR Frequency 118.2 MHZ
Airport Navaids
Type NDB Name Manizales Frequency 337 KHZ
Airport Weather Information & NOTAM
ADDS - METARS form results

(1934 UTC 30 September 2022)
Data provider http://aviationweather.gov/metar/data/
 
METAR text: SKMZ 301900Z 30007KT 7000 VCSH BKN015 19/14 Q1023 RMK VCSH/E/N A3023
Conditions at: SKMZ (MANIZALES LNUBIA, CO) observed 1900 UTC 30 September 2022
Temperature: 19.0°C (66°F)
Dewpoint: 14.0°C (57°F) [RH = 73%]
Pressure (altimeter): 30.21 inches Hg (1023.0 mb)
Winds: from the WNW (300 degrees) at 8 MPH (7 knots; 3.6 m/s)
Visibility: 4 miles ( 7 km)
Ceiling: 1500 feet AGL
Clouds: broken clouds at 1500 feet AGL
Weather: VCSH  (showers in vicinity)